Tappen, North Dakota
Current Conditions -  °F | °C
As of 8:56 PM on Friday 28 Nov 2014 (Local Time) from KJMS Reporting Station
Few Clouds Few Clouds  
Wind Chill: -1°   Ceiling: Unl
Heat Index: 13°   Visibility: 10mi
Dew Point: 10°   Wind: 12mph
Humidity: 88%   Direction: 150°SSE
Pressure: 29.54"   Gusts: NA
Location:  46.87°N, 99.64°W
Report Text: KJMS 290256Z AUTO 15010KT 10SM FEW007 M11/M12 A2954 RMK AO2 SLP036 T11061122 56033
Loading
Personal Weather Stations






























Interactive Weather Map New forecast layout! Learn more

10-Day Weather Forecast

Advertisements
Track Severe Weather on mobile